createdAt,value
2023-02-06T00:00:39.564Z,4.60
2023-02-06T00:03:06.530Z,4.80
2023-02-06T00:05:33.822Z,4.80
2023-02-06T00:08:00.716Z,4.80
2023-02-06T00:10:27.695Z,4.90
2023-02-06T00:12:54.742Z,4.90
2023-02-06T00:15:21.912Z,4.80
2023-02-06T00:17:48.813Z,4.70
2023-02-06T00:20:15.455Z,5.00
2023-02-06T00:22:42.894Z,5.10
2023-02-06T00:25:09.560Z,4.80
2023-02-06T00:27:36.381Z,4.50
2023-02-06T00:30:03.136Z,4.90
2023-02-06T00:32:29.866Z,5.00
2023-02-06T00:34:56.594Z,5.00
2023-02-06T00:37:23.565Z,4.90
2023-02-06T00:39:50.217Z,4.90
2023-02-06T00:42:16.897Z,4.80
2023-02-06T00:44:43.904Z,5.00
2023-02-06T00:47:10.934Z,5.20
2023-02-06T00:49:37.600Z,5.50
2023-02-06T00:52:04.771Z,5.70
2023-02-06T00:54:31.697Z,5.70
2023-02-06T00:56:58.708Z,5.70
2023-02-06T00:59:25.294Z,5.80
2023-02-06T01:01:52.058Z,6.00
2023-02-06T01:04:19.040Z,6.10
2023-02-06T01:06:45.722Z,6.20
2023-02-06T01:09:12.753Z,6.20
2023-02-06T01:11:39.816Z,5.80
2023-02-06T01:14:06.943Z,5.70
2023-02-06T01:16:33.930Z,5.50
2023-02-06T01:19:00.919Z,5.60
2023-02-06T01:21:27.707Z,5.80
2023-02-06T01:23:55.127Z,6.00
2023-02-06T01:26:24.142Z,6.10
2023-02-06T01:28:51.214Z,6.20
2023-02-06T01:31:22.964Z,6.10
2023-02-06T01:33:50.324Z,5.40
2023-02-06T01:36:17.865Z,5.00
2023-02-06T01:38:45.226Z,4.80
2023-02-06T01:41:12.821Z,4.50
2023-02-06T01:43:41.459Z,4.50
2023-02-06T01:46:08.630Z,4.70
2023-02-06T01:48:38.218Z,4.90
2023-02-06T01:51:06.978Z,5.00
2023-02-06T01:53:34.532Z,4.60
2023-02-06T01:56:03.328Z,4.50
2023-02-06T01:58:32.098Z,4.50
2023-02-06T02:00:59.876Z,4.70
2023-02-06T02:03:27.289Z,5.00
2023-02-06T02:05:55.838Z,5.10
2023-02-06T02:08:33.709Z,4.80
2023-02-06T02:11:01.625Z,4.50
2023-02-06T02:13:28.352Z,4.60
2023-02-06T02:16:07.073Z,4.90
2023-02-06T02:18:45.805Z,4.80
2023-02-06T02:21:18.588Z,5.00
2023-02-06T02:24:12.014Z,5.00
2023-02-06T02:26:42.176Z,5.10
2023-02-06T02:29:16.169Z,5.20
2023-02-06T02:31:52.683Z,5.10
2023-02-06T02:34:31.565Z,5.20
2023-02-06T02:37:01.127Z,5.10
2023-02-06T02:39:49.846Z,4.80
2023-02-06T02:42:24.508Z,4.60
2023-02-06T02:44:54.155Z,4.70
2023-02-06T02:47:23.774Z,4.90
2023-02-06T02:49:51.675Z,4.80
2023-02-06T02:52:18.961Z,5.00
2023-02-06T02:54:45.702Z,4.90
2023-02-06T02:57:14.700Z,4.90
2023-02-06T02:59:44.372Z,4.90
2023-02-06T03:02:20.398Z,4.80
2023-02-06T03:04:47.361Z,5.00
2023-02-06T03:07:17.282Z,4.60
2023-02-06T03:09:46.759Z,4.80
2023-02-06T03:12:20.144Z,5.00
2023-02-06T03:14:53.614Z,5.00
2023-02-06T03:17:28.258Z,4.90
2023-02-06T03:19:56.763Z,5.00
2023-02-06T03:22:24.636Z,4.80
2023-02-06T03:24:52.492Z,4.50
2023-02-06T03:27:19.861Z,4.40
2023-02-06T03:29:48.575Z,4.30
2023-02-06T03:32:17.481Z,4.40
2023-02-06T03:35:03.051Z,4.50
2023-02-06T03:37:29.904Z,4.60
2023-02-06T03:39:58.635Z,4.80
2023-02-06T03:42:25.880Z,4.90
2023-02-06T03:44:56.511Z,4.90
2023-02-06T03:47:23.938Z,4.60
2023-02-06T03:49:51.489Z,4.30
2023-02-06T03:52:21.343Z,4.20
2023-02-06T03:54:50.302Z,4.40
2023-02-06T03:57:19.351Z,4.30
2023-02-06T03:59:46.551Z,4.40
2023-02-06T04:02:14.055Z,4.40
2023-02-06T04:04:41.657Z,4.60
2023-02-06T04:07:20.960Z,4.50
2023-02-06T04:09:47.901Z,4.40
2023-02-06T04:12:15.506Z,4.50
2023-02-06T04:14:42.797Z,4.70
2023-02-06T04:17:10.095Z,4.90
2023-02-06T04:19:37.522Z,5.00
2023-02-06T04:22:05.326Z,5.00
2023-02-06T04:24:32.462Z,5.00
2023-02-06T04:26:59.472Z,4.90
2023-02-06T04:29:26.124Z,5.00
2023-02-06T04:31:53.146Z,4.80
2023-02-06T04:34:20.170Z,4.70
2023-02-06T04:36:47.198Z,4.60
2023-02-06T04:39:13.940Z,4.30
2023-02-06T04:41:40.926Z,4.40
2023-02-06T04:44:08.898Z,4.40
2023-02-06T04:46:36.608Z,4.50
2023-02-06T04:49:03.297Z,4.60
2023-02-06T04:51:30.330Z,5.00
2023-02-06T04:53:57.344Z,5.20
2023-02-06T04:56:25.902Z,5.20
2023-02-06T04:58:52.784Z,5.10
2023-02-06T05:01:19.908Z,4.80
2023-02-06T05:03:46.941Z,4.60
2023-02-06T05:06:14.359Z,4.60
2023-02-06T05:08:41.304Z,4.80
2023-02-06T05:11:08.668Z,4.70
2023-02-06T05:13:35.387Z,4.70
2023-02-06T05:16:08.774Z,4.70
2023-02-06T05:18:35.909Z,4.60
2023-02-06T05:21:02.872Z,4.60
2023-02-06T05:23:29.912Z,4.30
2023-02-06T05:25:56.895Z,4.30
2023-02-06T05:28:23.813Z,4.50
2023-02-06T05:30:51.033Z,4.50
2023-02-06T05:33:18.906Z,4.60
2023-02-06T05:35:45.814Z,4.50
2023-02-06T05:38:12.853Z,4.40
2023-02-06T05:40:39.889Z,4.40
2023-02-06T05:43:07.017Z,4.50
2023-02-06T05:45:35.959Z,4.40
2023-02-06T05:48:03.287Z,4.40
2023-02-06T05:50:30.131Z,4.40
2023-02-06T05:52:57.152Z,4.30
2023-02-06T05:55:23.822Z,4.20
2023-02-06T05:57:50.834Z,4.40
2023-02-06T06:00:17.568Z,4.60
2023-02-06T06:02:44.589Z,4.50
2023-02-06T06:05:13.324Z,4.40
2023-02-06T06:07:40.351Z,4.30
2023-02-06T06:10:07.887Z,4.20
2023-02-06T06:12:34.800Z,4.10
2023-02-06T06:15:01.946Z,4.10
2023-02-06T06:17:28.952Z,4.40
2023-02-06T06:19:55.965Z,4.50
2023-02-06T06:22:22.970Z,4.40
2023-02-06T06:24:49.612Z,4.30
2023-02-06T06:27:16.304Z,4.10
2023-02-06T06:29:45.383Z,4.10
2023-02-06T06:32:12.434Z,4.10
2023-02-06T06:34:39.439Z,4.00
2023-02-06T06:37:06.163Z,4.00
2023-02-06T06:39:33.099Z,4.10
2023-02-06T06:41:59.760Z,4.30
2023-02-06T06:44:33.801Z,4.20
2023-02-06T06:47:00.824Z,4.20
2023-02-06T06:49:29.009Z,4.20
2023-02-06T06:51:56.154Z,4.20
2023-02-06T06:54:23.260Z,4.10
2023-02-06T06:56:50.302Z,4.00
2023-02-06T06:59:17.291Z,4.00
2023-02-06T07:01:43.939Z,4.10
2023-02-06T07:04:10.596Z,4.00
2023-02-06T07:06:40.457Z,4.00
2023-02-06T07:09:07.153Z,4.10
2023-02-06T07:11:34.193Z,4.00
2023-02-06T07:14:01.300Z,3.90
2023-02-06T07:16:30.821Z,3.90
2023-02-06T07:18:57.820Z,3.90
2023-02-06T07:21:24.899Z,4.00
2023-02-06T07:23:51.873Z,4.30
2023-02-06T07:26:18.518Z,4.40
2023-02-06T07:28:45.241Z,4.40
2023-02-06T07:31:14.402Z,4.30
2023-02-06T07:33:41.401Z,4.10
2023-02-06T07:36:12.251Z,3.90
2023-02-06T07:38:39.511Z,3.90
2023-02-06T07:41:07.023Z,4.00
2023-02-06T07:43:36.386Z,4.20
2023-02-06T07:46:04.492Z,4.20
2023-02-06T07:48:31.632Z,4.30
2023-02-06T07:51:03.810Z,4.30
2023-02-06T07:53:33.111Z,4.40
2023-02-06T07:56:02.228Z,4.50
2023-02-06T07:58:30.251Z,4.20
2023-02-06T08:00:59.686Z,4.30
2023-02-06T08:03:26.415Z,4.60
2023-02-06T08:05:55.560Z,4.50
2023-02-06T08:08:22.549Z,4.60
2023-02-06T08:10:49.756Z,4.60
2023-02-06T08:13:16.706Z,4.60
2023-02-06T08:15:45.019Z,4.60
2023-02-06T08:18:11.914Z,4.40
2023-02-06T08:20:38.531Z,4.20
2023-02-06T08:23:05.227Z,4.00
2023-02-06T08:25:32.246Z,4.20
2023-02-06T08:27:58.978Z,4.20
2023-02-06T08:30:26.134Z,4.30
2023-02-06T08:32:53.031Z,4.20
2023-02-06T08:35:20.076Z,4.10
2023-02-06T08:37:47.084Z,4.10
2023-02-06T08:40:14.144Z,4.20
2023-02-06T08:42:41.236Z,4.20
2023-02-06T08:45:08.473Z,4.50
2023-02-06T08:47:35.385Z,4.50
2023-02-06T08:50:03.675Z,4.40
2023-02-06T08:52:30.656Z,4.50
2023-02-06T08:54:57.671Z,4.60
2023-02-06T08:57:24.431Z,4.70
2023-02-06T08:59:51.385Z,4.70
2023-02-06T09:02:18.436Z,4.60
2023-02-06T09:04:45.751Z,4.50
2023-02-06T09:07:12.477Z,4.40
2023-02-06T09:09:39.622Z,4.60
2023-02-06T09:12:06.583Z,4.60
2023-02-06T09:14:34.062Z,4.70
2023-02-06T09:17:01.244Z,4.60
2023-02-06T09:19:28.247Z,4.50
2023-02-06T09:21:55.356Z,4.60
2023-02-06T09:24:22.613Z,4.60
2023-02-06T09:27:04.264Z,4.60
2023-02-06T09:29:31.957Z,4.50
2023-02-06T09:31:59.272Z,4.50
2023-02-06T09:34:27.297Z,4.60
2023-02-06T09:36:57.738Z,4.60
2023-02-06T09:39:25.058Z,4.60
2023-02-06T09:41:53.856Z,4.70
2023-02-06T09:44:32.195Z,4.80
2023-02-06T09:47:01.604Z,4.70
2023-02-06T09:49:58.601Z,4.70
2023-02-06T09:52:31.427Z,4.60
2023-02-06T09:55:10.116Z,4.90
2023-02-06T09:57:37.018Z,4.80
2023-02-06T10:00:13.699Z,5.00
2023-02-06T10:02:50.956Z,5.10
2023-02-06T10:05:33.580Z,5.10
2023-02-06T10:08:09.451Z,5.10
2023-02-06T10:10:40.237Z,5.30
2023-02-06T10:13:07.181Z,5.40
2023-02-06T10:15:38.280Z,5.30
2023-02-06T10:18:10.172Z,5.60
2023-02-06T10:20:43.543Z,5.90
2023-02-06T10:23:26.959Z,5.90
2023-02-06T10:26:19.633Z,5.90
2023-02-06T10:28:51.255Z,5.90
2023-02-06T10:31:24.239Z,6.30
2023-02-06T10:33:57.324Z,6.30
2023-02-06T10:36:35.501Z,6.10
2023-02-06T10:39:05.944Z,6.20
2023-02-06T10:42:02.109Z,6.10
2023-02-06T10:44:28.883Z,6.10
2023-02-06T10:46:56.379Z,6.10
2023-02-06T10:49:43.901Z,6.10
2023-02-06T10:52:16.693Z,6.00
2023-02-06T10:54:47.270Z,6.40
2023-02-06T10:57:18.594Z,6.70
2023-02-06T10:59:48.120Z,6.90
2023-02-06T11:02:26.484Z,6.90
2023-02-06T11:05:25.818Z,6.80
2023-02-06T11:08:18.543Z,7.00
2023-02-06T11:10:46.566Z,7.20
2023-02-06T11:13:31.070Z,7.50
2023-02-06T11:16:18.452Z,7.30
2023-02-06T11:18:46.518Z,7.60
2023-02-06T11:21:14.659Z,7.80
2023-02-06T11:23:42.237Z,7.90
2023-02-06T11:26:13.948Z,7.40
2023-02-06T11:28:52.352Z,7.70
2023-02-06T11:31:38.242Z,7.80
2023-02-06T11:34:05.333Z,7.90
2023-02-06T11:36:33.693Z,8.10
2023-02-06T11:39:19.238Z,9.20
2023-02-06T11:42:02.068Z,10.30
2023-02-06T11:44:34.970Z,10.80
2023-02-06T11:47:20.493Z,11.40
2023-02-06T11:49:47.484Z,11.90
2023-02-06T11:52:28.416Z,11.40
2023-02-06T11:54:56.840Z,11.50
2023-02-06T11:57:25.411Z,11.80
2023-02-06T11:59:55.063Z,11.60
2023-02-06T12:02:25.286Z,9.40
2023-02-06T12:04:53.472Z,9.10
2023-02-06T12:07:30.328Z,8.90
2023-02-06T12:09:57.260Z,9.00
2023-02-06T12:12:24.259Z,8.70
2023-02-06T12:14:59.121Z,8.60
2023-02-06T12:17:32.291Z,8.30
2023-02-06T12:20:01.618Z,7.90
2023-02-06T12:22:30.206Z,8.00
2023-02-06T12:25:01.729Z,8.30
2023-02-06T12:27:39.552Z,8.90
2023-02-06T12:30:23.678Z,8.70
2023-02-06T12:32:53.803Z,9.00
2023-02-06T12:35:24.328Z,9.20
2023-02-06T12:37:53.902Z,8.80
2023-02-06T12:40:42.639Z,8.40
2023-02-06T12:43:15.461Z,8.10
2023-02-06T12:46:11.601Z,8.00
2023-02-06T12:48:47.754Z,8.10
2023-02-06T12:51:29.587Z,8.40
2023-02-06T12:53:59.589Z,10.30
2023-02-06T12:56:26.594Z,12.00
2023-02-06T12:59:02.292Z,13.30
2023-02-06T13:01:39.269Z,13.60
2023-02-06T13:04:11.834Z,13.00
2023-02-06T13:06:51.684Z,13.00
2023-02-06T13:09:23.131Z,13.00
2023-02-06T13:11:52.172Z,13.00
2023-02-06T13:14:26.017Z,13.20
2023-02-06T13:16:53.008Z,12.80
2023-02-06T13:19:21.571Z,13.40
2023-02-06T13:22:13.024Z,14.90
2023-02-06T13:24:41.161Z,14.00
2023-02-06T13:27:07.785Z,14.00
2023-02-06T13:29:49.223Z,14.10
2023-02-06T13:32:18.438Z,14.00
2023-02-06T13:34:51.661Z,13.10
2023-02-06T13:37:31.402Z,11.60
2023-02-06T13:40:17.032Z,10.40
2023-02-06T13:42:49.855Z,9.60
2023-02-06T13:45:21.571Z,9.10
2023-02-06T13:47:57.549Z,10.20
2023-02-06T13:50:24.584Z,11.40
2023-02-06T13:53:07.070Z,12.60
2023-02-06T13:55:43.215Z,12.40
2023-02-06T13:58:09.790Z,12.70
2023-02-06T14:00:39.735Z,12.70
2023-02-06T14:03:11.224Z,11.20
2023-02-06T14:05:48.530Z,9.70
2023-02-06T14:08:43.742Z,9.90
2023-02-06T14:11:28.883Z,10.60
2023-02-06T14:14:05.263Z,11.60
2023-02-06T14:16:34.814Z,12.00
2023-02-06T14:19:08.771Z,11.90
2023-02-06T14:21:41.078Z,11.50
2023-02-06T14:24:31.404Z,11.20
2023-02-06T14:26:58.341Z,11.60
2023-02-06T14:29:30.764Z,11.60
2023-02-06T14:32:00.815Z,11.80
2023-02-06T14:34:40.246Z,11.50
2023-02-06T14:37:07.049Z,11.30
2023-02-06T14:39:42.352Z,10.90
2023-02-06T14:42:15.193Z,10.70
2023-02-06T14:44:42.949Z,10.30
2023-02-06T14:47:28.620Z,9.70
2023-02-06T14:49:56.692Z,8.90
2023-02-06T14:52:25.534Z,8.40
2023-02-06T14:54:52.638Z,8.10
2023-02-06T14:57:19.508Z,7.90
2023-02-06T14:59:55.464Z,7.80
2023-02-06T15:02:24.422Z,7.80
2023-02-06T15:04:51.309Z,7.80
2023-02-06T15:07:23.857Z,7.70
2023-02-06T15:09:58.696Z,7.60
2023-02-06T15:12:28.839Z,7.50
2023-02-06T15:14:57.559Z,7.40
2023-02-06T15:17:26.697Z,7.50
2023-02-06T15:19:53.672Z,7.50
2023-02-06T15:22:38.598Z,7.40
2023-02-06T15:25:08.617Z,7.10
2023-02-06T15:27:36.436Z,7.00
2023-02-06T15:30:17.094Z,7.10
2023-02-06T15:32:47.331Z,7.10
2023-02-06T15:35:33.424Z,7.10
2023-02-06T15:38:04.513Z,7.10
2023-02-06T15:40:32.799Z,7.20
2023-02-06T15:43:00.198Z,7.10
2023-02-06T15:45:31.927Z,7.00
2023-02-06T15:48:00.139Z,7.10
2023-02-06T15:50:27.921Z,6.90
2023-02-06T15:52:55.792Z,6.90
2023-02-06T15:55:22.703Z,6.80
2023-02-06T15:57:49.818Z,6.80
2023-02-06T16:00:39.944Z,6.90
2023-02-06T16:03:08.616Z,6.80
2023-02-06T16:05:40.550Z,6.70
2023-02-06T16:08:12.298Z,6.70
2023-02-06T16:10:42.954Z,6.60
2023-02-06T16:13:11.901Z,6.60
2023-02-06T16:15:39.754Z,6.70
2023-02-06T16:18:24.882Z,6.60
2023-02-06T16:20:51.681Z,6.70
2023-02-06T16:23:18.586Z,6.60
2023-02-06T16:25:47.045Z,6.40
2023-02-06T16:28:24.732Z,6.40
2023-02-06T16:30:59.374Z,6.30
2023-02-06T16:33:38.330Z,6.10
2023-02-06T16:36:05.861Z,6.10
2023-02-06T16:38:33.029Z,6.40
2023-02-06T16:40:59.854Z,6.30
2023-02-06T16:43:30.506Z,6.00
2023-02-06T16:46:00.168Z,6.00
2023-02-06T16:48:27.230Z,5.90
2023-02-06T16:50:54.242Z,5.80
2023-02-06T16:53:24.788Z,5.80
2023-02-06T16:55:51.661Z,5.70
2023-02-06T16:58:24.349Z,5.60
2023-02-06T17:00:51.970Z,5.40
2023-02-06T17:03:18.898Z,5.50
2023-02-06T17:05:46.881Z,5.60
2023-02-06T17:08:16.672Z,5.80
2023-02-06T17:10:43.922Z,5.70
2023-02-06T17:13:19.794Z,5.60
2023-02-06T17:15:47.410Z,5.60
2023-02-06T17:18:17.935Z,5.80
2023-02-06T17:20:46.012Z,5.80
2023-02-06T17:23:13.089Z,5.90
2023-02-06T17:25:40.736Z,6.00
2023-02-06T17:28:09.068Z,5.60
2023-02-06T17:30:36.966Z,5.40
2023-02-06T17:33:04.705Z,5.30
2023-02-06T17:35:32.151Z,5.20
2023-02-06T17:37:58.995Z,5.10
2023-02-06T17:40:27.788Z,5.00
2023-02-06T17:42:55.121Z,5.00
2023-02-06T17:45:22.252Z,5.00
2023-02-06T17:47:49.429Z,4.90
2023-02-06T17:50:17.828Z,4.90
2023-02-06T17:52:44.583Z,5.00
2023-02-06T17:55:12.049Z,5.00
2023-02-06T17:57:39.515Z,5.00
2023-02-06T18:00:07.387Z,5.00
2023-02-06T18:02:34.401Z,4.80
2023-02-06T18:05:01.367Z,4.90
2023-02-06T18:07:28.362Z,4.80
2023-02-06T18:09:55.430Z,4.80
2023-02-06T18:12:22.456Z,4.80
2023-02-06T18:14:50.083Z,5.10
2023-02-06T18:17:17.780Z,5.10
2023-02-06T18:19:46.558Z,5.20
2023-02-06T18:22:15.131Z,4.90
2023-02-06T18:24:41.785Z,4.50
2023-02-06T18:27:16.591Z,4.50
2023-02-06T18:29:49.893Z,4.70
2023-02-06T18:32:17.853Z,4.90
2023-02-06T18:34:45.694Z,4.80
2023-02-06T18:37:12.659Z,4.80
2023-02-06T18:39:43.063Z,4.70
2023-02-06T18:42:29.762Z,4.80
2023-02-06T18:44:56.768Z,4.60
2023-02-06T18:47:23.729Z,4.30
2023-02-06T18:49:53.592Z,4.40
2023-02-06T18:52:20.699Z,4.40
2023-02-06T18:54:49.810Z,4.60
2023-02-06T18:57:16.947Z,4.70
2023-02-06T18:59:43.635Z,4.80
2023-02-06T19:02:11.241Z,4.70
2023-02-06T19:04:39.771Z,4.90
2023-02-06T19:07:06.759Z,4.80
2023-02-06T19:09:33.725Z,4.80
2023-02-06T19:12:00.757Z,4.70
2023-02-06T19:14:27.840Z,4.40
2023-02-06T19:16:55.100Z,4.10
2023-02-06T19:19:21.956Z,4.10
2023-02-06T19:21:49.016Z,4.20
2023-02-06T19:24:18.453Z,4.30
2023-02-06T19:26:48.292Z,4.30
2023-02-06T19:29:17.584Z,4.50
2023-02-06T19:31:46.300Z,4.60
2023-02-06T19:34:13.196Z,4.50
2023-02-06T19:36:40.356Z,4.30
2023-02-06T19:39:09.300Z,4.10
2023-02-06T19:41:36.090Z,4.10
2023-02-06T19:44:07.085Z,4.10
2023-02-06T19:46:34.108Z,4.00
2023-02-06T19:49:00.833Z,3.90
2023-02-06T19:51:29.524Z,4.10
2023-02-06T19:53:57.511Z,4.20
2023-02-06T19:56:47.506Z,4.30
2023-02-06T19:59:18.511Z,4.10
2023-02-06T20:01:49.938Z,4.10
2023-02-06T20:04:17.457Z,3.80
2023-02-06T20:06:44.351Z,3.50
2023-02-06T20:09:15.085Z,3.20
2023-02-06T20:11:42.413Z,3.10
2023-02-06T20:14:10.002Z,3.20
2023-02-06T20:16:38.025Z,3.40
2023-02-06T20:19:08.677Z,3.50
2023-02-06T20:21:39.093Z,3.60
2023-02-06T20:24:07.485Z,3.60
2023-02-06T20:26:36.957Z,3.80
2023-02-06T20:29:04.424Z,3.70
2023-02-06T20:31:31.701Z,3.60
2023-02-06T20:33:58.516Z,3.70
2023-02-06T20:36:26.397Z,3.60
2023-02-06T20:38:55.796Z,3.30
2023-02-06T20:41:26.207Z,3.10
2023-02-06T20:43:53.220Z,2.90
2023-02-06T20:46:21.623Z,2.80
2023-02-06T20:48:52.662Z,3.00
2023-02-06T20:51:19.959Z,3.30
2023-02-06T20:53:46.794Z,3.50
2023-02-06T20:56:15.395Z,3.40
2023-02-06T20:58:42.404Z,3.00
2023-02-06T21:01:13.741Z,2.80
2023-02-06T21:03:40.758Z,2.70
2023-02-06T21:06:07.800Z,2.80
2023-02-06T21:08:37.080Z,2.90
2023-02-06T21:11:04.207Z,2.90
2023-02-06T21:13:30.974Z,3.00
2023-02-06T21:15:58.302Z,3.10
2023-02-06T21:18:30.105Z,3.30
2023-02-06T21:20:57.102Z,3.10
2023-02-06T21:23:24.312Z,3.10
2023-02-06T21:25:54.633Z,2.80
2023-02-06T21:28:21.846Z,2.60
2023-02-06T21:30:49.544Z,2.60
2023-02-06T21:33:16.734Z,2.60
2023-02-06T21:35:50.460Z,2.80
2023-02-06T21:38:17.610Z,2.80
2023-02-06T21:40:46.961Z,3.00
2023-02-06T21:43:15.205Z,3.10
2023-02-06T21:45:42.624Z,2.90
2023-02-06T21:48:09.676Z,2.70
2023-02-06T21:50:40.323Z,2.70
2023-02-06T21:53:09.647Z,2.50
2023-02-06T21:55:41.075Z,2.40
2023-02-06T21:58:08.316Z,2.40
2023-02-06T22:00:35.039Z,2.20
2023-02-06T22:03:02.003Z,2.30
2023-02-06T22:05:29.158Z,2.30
2023-02-06T22:07:56.820Z,2.60
2023-02-06T22:10:23.731Z,2.50
2023-02-06T22:12:50.469Z,2.40
2023-02-06T22:15:17.514Z,2.40
2023-02-06T22:17:44.497Z,2.30
2023-02-06T22:20:11.513Z,2.30
2023-02-06T22:22:38.705Z,2.50
2023-02-06T22:25:05.781Z,2.40
2023-02-06T22:27:33.082Z,2.30
2023-02-06T22:29:59.739Z,2.40
2023-02-06T22:32:27.109Z,2.50
2023-02-06T22:34:54.015Z,2.30
2023-02-06T22:37:22.065Z,2.30
2023-02-06T22:39:48.722Z,2.40
2023-02-06T22:42:16.140Z,2.50
2023-02-06T22:44:42.945Z,2.60
2023-02-06T22:47:09.840Z,2.90
2023-02-06T22:49:36.509Z,2.90
2023-02-06T22:52:03.689Z,2.50
2023-02-06T22:54:30.655Z,2.50
2023-02-06T22:56:57.752Z,2.70
2023-02-06T22:59:25.164Z,2.80
2023-02-06T23:01:53.621Z,2.70
2023-02-06T23:04:22.012Z,2.70
2023-02-06T23:06:49.108Z,2.60
2023-02-06T23:09:17.704Z,2.80
2023-02-06T23:11:47.326Z,2.80
2023-02-06T23:14:15.250Z,2.60
2023-02-06T23:16:42.370Z,2.60
2023-02-06T23:19:10.547Z,2.60
2023-02-06T23:21:38.630Z,2.70
2023-02-06T23:24:05.865Z,2.80
2023-02-06T23:26:33.352Z,2.80
2023-02-06T23:29:01.646Z,2.70
2023-02-06T23:31:31.115Z,2.50
2023-02-06T23:33:58.176Z,2.20
2023-02-06T23:36:25.882Z,2.00
2023-02-06T23:38:53.403Z,1.90
2023-02-06T23:41:23.047Z,1.80
2023-02-06T23:43:51.305Z,2.00
2023-02-06T23:46:20.097Z,2.10
2023-02-06T23:48:47.390Z,2.10
2023-02-06T23:51:14.631Z,2.00
2023-02-06T23:53:41.629Z,2.10
2023-02-06T23:56:19.056Z,2.20
2023-02-06T23:58:46.221Z,2.10
